createdAt,value
2023-04-22T00:01:05.085Z,14
2023-04-22T00:16:04.683Z,15
2023-04-22T00:31:05.248Z,15
2023-04-22T00:46:05.467Z,14
2023-04-22T01:01:04.565Z,15
2023-04-22T01:16:04.802Z,15
2023-04-22T01:31:05.200Z,15
2023-04-22T01:46:05.462Z,13
2023-04-22T02:01:04.687Z,13
2023-04-22T02:16:05.191Z,14
2023-04-22T02:31:05.225Z,14
2023-04-22T02:46:05.540Z,14
2023-04-22T03:01:05.158Z,14
2023-04-22T03:16:05.437Z,15
2023-04-22T03:31:05.368Z,15
2023-04-22T03:46:04.467Z,16
2023-04-22T04:01:04.790Z,16
2023-04-22T04:16:05.097Z,15
2023-04-22T04:31:04.868Z,16
2023-04-22T04:46:05.175Z,21
2023-04-22T05:01:05.645Z,18
2023-04-22T05:16:05.496Z,16
2023-04-22T05:31:04.823Z,21
2023-04-22T05:46:05.361Z,24
2023-04-22T06:01:04.392Z,24
2023-04-22T06:16:05.406Z,21
2023-04-22T06:31:05.228Z,22
2023-04-22T06:46:05.668Z,21
2023-04-22T07:01:04.952Z,20
2023-04-22T07:16:05.245Z,14
2023-04-22T07:31:05.575Z,10
2023-04-22T07:46:04.760Z,8
2023-04-22T08:01:05.246Z,5
2023-04-22T08:16:04.922Z,5
2023-04-22T08:31:05.326Z,4
2023-04-22T08:46:05.449Z,4
2023-04-22T09:01:05.571Z,3
2023-04-22T09:16:05.581Z,5
2023-04-22T09:31:04.878Z,4
2023-04-22T09:46:05.508Z,3
2023-04-22T10:01:04.870Z,3
2023-04-22T10:16:05.295Z,4
2023-04-22T10:31:04.939Z,3
2023-04-22T10:46:04.679Z,3
2023-04-22T11:01:04.382Z,4
2023-04-22T11:16:05.229Z,4
2023-04-22T11:31:05.003Z,4
2023-04-22T11:46:04.328Z,3
2023-04-22T12:01:03.836Z,3
2023-04-22T12:16:05.056Z,3
2023-04-22T12:45:24.388Z,3
2023-04-22T13:00:24.480Z,2
2023-04-22T13:15:24.120Z,2
2023-04-22T13:30:23.932Z,2
2023-04-22T14:00:33.804Z,1
2023-04-22T14:00:33.817Z,1
2023-04-22T14:30:33.625Z,1
2023-04-22T14:30:33.627Z,1
2023-04-22T14:45:24.049Z,2
2023-04-22T15:00:23.444Z,2
2023-04-22T15:15:24.393Z,1
2023-04-22T15:30:24.262Z,1
2023-04-22T15:45:23.603Z,1
2023-04-22T16:00:23.504Z,1
2023-04-22T16:15:23.664Z,1
2023-04-22T16:30:23.742Z,1
2023-04-22T16:45:23.803Z,2
2023-04-22T17:00:23.997Z,2
2023-04-22T17:15:24.128Z,2
2023-04-22T17:30:24.244Z,3
2023-04-22T17:45:24.321Z,8
2023-04-22T18:00:24.207Z,5
2023-04-22T18:15:24.733Z,3
2023-04-22T18:30:24.568Z,4
2023-04-22T18:45:23.885Z,4
2023-04-22T19:00:24.275Z,5
2023-04-22T19:15:24.225Z,5
2023-04-22T19:30:24.476Z,6
2023-04-22T19:45:23.973Z,6
2023-04-22T20:00:24.486Z,8
2023-04-22T20:15:24.430Z,8
2023-04-22T20:30:23.898Z,6
2023-04-22T20:45:24.195Z,6
2023-04-22T21:00:24.262Z,8
2023-04-22T21:15:24.440Z,7
2023-04-22T21:30:23.452Z,6
2023-04-22T21:45:24.535Z,7
2023-04-22T22:00:23.712Z,21
2023-04-22T22:15:24.382Z,7
2023-04-22T22:30:24.704Z,9
2023-04-22T22:45:24.406Z,20
2023-04-22T23:00:23.749Z,8
2023-04-22T23:15:24.303Z,7
2023-04-22T23:30:24.244Z,7
2023-04-22T23:45:24.509Z,8
